sensor_id;sensor_type;location;lat;lon;timestamp;P1;durP1;ratioP1;P2;durP2;ratioP2
24467;SDS011;12634;50.852;5.676;2023-04-30T00:00:23;23.27;;;18.60;;
24467;SDS011;12634;50.852;5.676;2023-04-30T00:02:50;25.02;;;18.52;;
24467;SDS011;12634;50.852;5.676;2023-04-30T00:05:19;25.05;;;17.95;;
24467;SDS011;12634;50.852;5.676;2023-04-30T00:07:47;25.02;;;18.58;;
24467;SDS011;12634;50.852;5.676;2023-04-30T00:10:14;25.13;;;17.42;;
24467;SDS011;12634;50.852;5.676;2023-04-30T00:12:41;25.77;;;18.85;;
24467;SDS011;12634;50.852;5.676;2023-04-30T00:15:09;22.23;;;17.27;;
24467;SDS011;12634;50.852;5.676;2023-04-30T00:17:36;23.63;;;17.00;;
24467;SDS011;12634;50.852;5.676;2023-04-30T00:20:04;26.50;;;18.35;;
24467;SDS011;12634;50.852;5.676;2023-04-30T00:22:34;25.42;;;18.45;;
24467;SDS011;12634;50.852;5.676;2023-04-30T00:25:01;24.52;;;17.67;;
24467;SDS011;12634;50.852;5.676;2023-04-30T00:27:28;26.50;;;18.65;;
24467;SDS011;12634;50.852;5.676;2023-04-30T00:29:55;24.50;;;19.33;;
24467;SDS011;12634;50.852;5.676;2023-04-30T00:32:22;28.05;;;19.27;;
24467;SDS011;12634;50.852;5.676;2023-04-30T00:34:49;23.70;;;19.08;;
24467;SDS011;12634;50.852;5.676;2023-04-30T00:37:17;27.20;;;19.48;;
24467;SDS011;12634;50.852;5.676;2023-04-30T00:39:45;27.52;;;19.45;;
24467;SDS011;12634;50.852;5.676;2023-04-30T00:42:12;23.02;;;18.58;;
24467;SDS011;12634;50.852;5.676;2023-04-30T00:44:39;24.85;;;19.00;;
24467;SDS011;12634;50.852;5.676;2023-04-30T00:47:06;26.98;;;18.85;;
24467;SDS011;12634;50.852;5.676;2023-04-30T00:49:33;25.73;;;19.08;;
24467;SDS011;12634;50.852;5.676;2023-04-30T00:52:00;25.23;;;19.58;;
24467;SDS011;12634;50.852;5.676;2023-04-30T00:54:27;24.98;;;19.05;;
24467;SDS011;12634;50.852;5.676;2023-04-30T00:56:56;25.73;;;19.23;;
24467;SDS011;12634;50.852;5.676;2023-04-30T00:59:23;24.92;;;18.83;;
24467;SDS011;12634;50.852;5.676;2023-04-30T01:01:51;27.77;;;18.60;;
24467;SDS011;12634;50.852;5.676;2023-04-30T01:04:18;21.98;;;17.70;;
24467;SDS011;12634;50.852;5.676;2023-04-30T01:06:46;23.45;;;17.77;;
24467;SDS011;12634;50.852;5.676;2023-04-30T01:09:13;22.95;;;16.67;;
24467;SDS011;12634;50.852;5.676;2023-04-30T01:11:44;23.20;;;16.80;;
24467;SDS011;12634;50.852;5.676;2023-04-30T01:14:21;22.40;;;16.17;;
24467;SDS011;12634;50.852;5.676;2023-04-30T01:16:58;20.50;;;15.80;;
24467;SDS011;12634;50.852;5.676;2023-04-30T01:19:34;21.67;;;15.82;;
24467;SDS011;12634;50.852;5.676;2023-04-30T01:22:08;18.95;;;15.20;;
24467;SDS011;12634;50.852;5.676;2023-04-30T01:24:42;23.58;;;16.08;;
24467;SDS011;12634;50.852;5.676;2023-04-30T01:27:31;15.63;;;13.60;;
24467;SDS011;12634;50.852;5.676;2023-04-30T01:30:09;17.90;;;13.40;;
24467;SDS011;12634;50.852;5.676;2023-04-30T01:32:37;18.65;;;13.57;;
24467;SDS011;12634;50.852;5.676;2023-04-30T01:35:04;17.13;;;12.98;;
24467;SDS011;12634;50.852;5.676;2023-04-30T01:37:34;16.08;;;12.68;;
24467;SDS011;12634;50.852;5.676;2023-04-30T01:40:16;16.70;;;12.07;;
24467;SDS011;12634;50.852;5.676;2023-04-30T01:42:51;17.90;;;11.98;;
24467;SDS011;12634;50.852;5.676;2023-04-30T01:45:31;15.55;;;11.95;;
24467;SDS011;12634;50.852;5.676;2023-04-30T01:48:06;17.40;;;11.35;;
24467;SDS011;12634;50.852;5.676;2023-04-30T01:50:46;18.40;;;11.63;;
24467;SDS011;12634;50.852;5.676;2023-04-30T01:53:17;15.82;;;11.35;;
24467;SDS011;12634;50.852;5.676;2023-04-30T01:55:49;14.25;;;11.38;;
24467;SDS011;12634;50.852;5.676;2023-04-30T01:58:20;13.70;;;10.88;;
24467;SDS011;12634;50.852;5.676;2023-04-30T02:00:51;15.07;;;11.10;;
24467;SDS011;12634;50.852;5.676;2023-04-30T02:03:18;15.93;;;11.60;;
24467;SDS011;12634;50.852;5.676;2023-04-30T02:05:46;16.15;;;12.40;;
24467;SDS011;12634;50.852;5.676;2023-04-30T02:08:13;14.32;;;10.82;;
24467;SDS011;12634;50.852;5.676;2023-04-30T02:10:40;14.20;;;10.73;;
24467;SDS011;12634;50.852;5.676;2023-04-30T02:13:07;13.63;;;10.32;;
24467;SDS011;12634;50.852;5.676;2023-04-30T02:15:34;15.13;;;10.95;;
24467;SDS011;12634;50.852;5.676;2023-04-30T02:18:03;14.70;;;11.18;;
24467;SDS011;12634;50.852;5.676;2023-04-30T02:20:30;17.30;;;12.07;;
24467;SDS011;12634;50.852;5.676;2023-04-30T02:22:57;13.13;;;10.43;;
24467;SDS011;12634;50.852;5.676;2023-04-30T02:25:24;15.13;;;10.82;;
24467;SDS011;12634;50.852;5.676;2023-04-30T02:27:51;16.92;;;11.10;;
24467;SDS011;12634;50.852;5.676;2023-04-30T02:30:19;15.30;;;10.82;;
24467;SDS011;12634;50.852;5.676;2023-04-30T02:32:46;16.77;;;11.00;;
24467;SDS011;12634;50.852;5.676;2023-04-30T02:35:14;17.92;;;10.23;;
24467;SDS011;12634;50.852;5.676;2023-04-30T02:37:41;12.68;;;10.30;;
24467;SDS011;12634;50.852;5.676;2023-04-30T02:40:09;14.77;;;10.40;;
24467;SDS011;12634;50.852;5.676;2023-04-30T02:42:37;13.88;;;10.50;;
24467;SDS011;12634;50.852;5.676;2023-04-30T02:45:04;15.38;;;9.73;;
24467;SDS011;12634;50.852;5.676;2023-04-30T02:47:33;14.95;;;11.23;;
24467;SDS011;12634;50.852;5.676;2023-04-30T02:50:00;15.98;;;10.65;;
24467;SDS011;12634;50.852;5.676;2023-04-30T02:52:29;14.65;;;10.52;;
24467;SDS011;12634;50.852;5.676;2023-04-30T02:54:57;16.10;;;10.95;;
24467;SDS011;12634;50.852;5.676;2023-04-30T02:57:24;15.65;;;10.52;;
24467;SDS011;12634;50.852;5.676;2023-04-30T02:59:52;15.88;;;10.32;;
24467;SDS011;12634;50.852;5.676;2023-04-30T03:02:19;13.45;;;10.07;;
24467;SDS011;12634;50.852;5.676;2023-04-30T03:04:47;12.77;;;9.82;;
24467;SDS011;12634;50.852;5.676;2023-04-30T03:07:15;14.77;;;9.23;;
24467;SDS011;12634;50.852;5.676;2023-04-30T03:09:43;13.27;;;10.13;;
24467;SDS011;12634;50.852;5.676;2023-04-30T03:12:11;16.85;;;10.32;;
24467;SDS011;12634;50.852;5.676;2023-04-30T03:14:39;13.38;;;9.77;;
24467;SDS011;12634;50.852;5.676;2023-04-30T03:17:07;20.20;;;11.65;;
24467;SDS011;12634;50.852;5.676;2023-04-30T03:19:34;15.05;;;10.95;;
24467;SDS011;12634;50.852;5.676;2023-04-30T03:22:01;14.98;;;11.13;;
24467;SDS011;12634;50.852;5.676;2023-04-30T03:24:28;17.63;;;12.18;;
24467;SDS011;12634;50.852;5.676;2023-04-30T03:26:56;16.75;;;11.02;;
24467;SDS011;12634;50.852;5.676;2023-04-30T03:29:23;17.33;;;11.60;;
24467;SDS011;12634;50.852;5.676;2023-04-30T03:31:51;17.08;;;11.60;;
24467;SDS011;12634;50.852;5.676;2023-04-30T03:34:18;18.70;;;11.45;;
24467;SDS011;12634;50.852;5.676;2023-04-30T03:36:45;16.88;;;11.13;;
24467;SDS011;12634;50.852;5.676;2023-04-30T03:39:13;16.02;;;11.75;;
24467;SDS011;12634;50.852;5.676;2023-04-30T03:41:40;16.52;;;11.82;;
24467;SDS011;12634;50.852;5.676;2023-04-30T03:44:08;19.00;;;11.93;;
24467;SDS011;12634;50.852;5.676;2023-04-30T03:46:39;18.20;;;12.35;;
24467;SDS011;12634;50.852;5.676;2023-04-30T03:49:07;16.75;;;11.90;;
24467;SDS011;12634;50.852;5.676;2023-04-30T03:51:35;20.52;;;12.75;;
24467;SDS011;12634;50.852;5.676;2023-04-30T03:54:05;19.67;;;12.57;;
24467;SDS011;12634;50.852;5.676;2023-04-30T03:56:33;16.38;;;11.98;;
24467;SDS011;12634;50.852;5.676;2023-04-30T03:59:01;16.35;;;11.25;;
24467;SDS011;12634;50.852;5.676;2023-04-30T04:01:30;17.17;;;12.80;;
24467;SDS011;12634;50.852;5.676;2023-04-30T04:03:57;21.98;;;12.73;;
24467;SDS011;12634;50.852;5.676;2023-04-30T04:06:24;17.15;;;11.57;;
24467;SDS011;12634;50.852;5.676;2023-04-30T04:08:52;15.88;;;12.25;;
24467;SDS011;12634;50.852;5.676;2023-04-30T04:11:19;19.35;;;12.65;;
24467;SDS011;12634;50.852;5.676;2023-04-30T04:13:46;17.33;;;13.63;;
24467;SDS011;12634;50.852;5.676;2023-04-30T04:16:13;16.35;;;13.32;;
24467;SDS011;12634;50.852;5.676;2023-04-30T04:18:42;15.35;;;12.80;;
24467;SDS011;12634;50.852;5.676;2023-04-30T04:21:09;18.23;;;12.88;;
24467;SDS011;12634;50.852;5.676;2023-04-30T04:23:36;16.73;;;13.20;;
24467;SDS011;12634;50.852;5.676;2023-04-30T04:26:03;19.48;;;14.50;;
24467;SDS011;12634;50.852;5.676;2023-04-30T04:28:30;19.58;;;13.95;;
24467;SDS011;12634;50.852;5.676;2023-04-30T04:30:57;21.30;;;14.15;;
24467;SDS011;12634;50.852;5.676;2023-04-30T04:33:24;21.88;;;14.32;;
24467;SDS011;12634;50.852;5.676;2023-04-30T04:35:53;19.13;;;14.82;;
24467;SDS011;12634;50.852;5.676;2023-04-30T04:38:22;17.40;;;13.60;;
24467;SDS011;12634;50.852;5.676;2023-04-30T04:40:50;18.05;;;14.45;;
24467;SDS011;12634;50.852;5.676;2023-04-30T04:43:17;19.88;;;14.68;;
24467;SDS011;12634;50.852;5.676;2023-04-30T04:45:45;20.30;;;14.40;;
24467;SDS011;12634;50.852;5.676;2023-04-30T04:48:12;19.83;;;15.38;;
24467;SDS011;12634;50.852;5.676;2023-04-30T04:50:39;20.33;;;15.05;;
24467;SDS011;12634;50.852;5.676;2023-04-30T04:53:08;18.17;;;14.38;;
24467;SDS011;12634;50.852;5.676;2023-04-30T04:55:35;19.63;;;14.82;;
24467;SDS011;12634;50.852;5.676;2023-04-30T04:58:02;19.65;;;14.73;;
24467;SDS011;12634;50.852;5.676;2023-04-30T05:00:29;19.17;;;15.23;;
24467;SDS011;12634;50.852;5.676;2023-04-30T05:02:57;20.83;;;15.07;;
24467;SDS011;12634;50.852;5.676;2023-04-30T05:05:24;20.67;;;15.43;;
24467;SDS011;12634;50.852;5.676;2023-04-30T05:07:52;21.08;;;15.93;;
24467;SDS011;12634;50.852;5.676;2023-04-30T05:10:20;21.27;;;16.17;;
24467;SDS011;12634;50.852;5.676;2023-04-30T05:12:47;23.80;;;15.60;;
24467;SDS011;12634;50.852;5.676;2023-04-30T05:15:14;18.75;;;15.05;;
24467;SDS011;12634;50.852;5.676;2023-04-30T05:17:42;17.95;;;14.43;;
24467;SDS011;12634;50.852;5.676;2023-04-30T05:20:10;20.40;;;14.60;;
24467;SDS011;12634;50.852;5.676;2023-04-30T05:22:37;20.98;;;15.82;;
24467;SDS011;12634;50.852;5.676;2023-04-30T05:25:05;21.73;;;15.68;;
24467;SDS011;12634;50.852;5.676;2023-04-30T05:27:34;19.67;;;15.60;;
24467;SDS011;12634;50.852;5.676;2023-04-30T05:30:01;21.25;;;15.45;;
24467;SDS011;12634;50.852;5.676;2023-04-30T05:32:29;21.27;;;14.60;;
24467;SDS011;12634;50.852;5.676;2023-04-30T05:34:56;19.00;;;14.98;;
24467;SDS011;12634;50.852;5.676;2023-04-30T05:37:23;19.80;;;14.40;;
24467;SDS011;12634;50.852;5.676;2023-04-30T05:39:50;18.38;;;14.43;;
24467;SDS011;12634;50.852;5.676;2023-04-30T05:42:18;18.17;;;13.82;;
24467;SDS011;12634;50.852;5.676;2023-04-30T05:44:47;18.65;;;13.30;;
24467;SDS011;12634;50.852;5.676;2023-04-30T05:47:14;17.52;;;13.50;;
24467;SDS011;12634;50.852;5.676;2023-04-30T05:49:41;18.17;;;12.93;;
24467;SDS011;12634;50.852;5.676;2023-04-30T05:52:08;16.70;;;12.65;;
24467;SDS011;12634;50.852;5.676;2023-04-30T05:54:36;19.05;;;12.40;;
24467;SDS011;12634;50.852;5.676;2023-04-30T05:57:03;14.57;;;11.88;;
24467;SDS011;12634;50.852;5.676;2023-04-30T05:59:30;18.65;;;12.43;;
24467;SDS011;12634;50.852;5.676;2023-04-30T06:01:59;15.52;;;12.10;;
24467;SDS011;12634;50.852;5.676;2023-04-30T06:04:26;16.17;;;11.88;;
24467;SDS011;12634;50.852;5.676;2023-04-30T06:06:54;17.35;;;12.13;;
24467;SDS011;12634;50.852;5.676;2023-04-30T06:09:21;15.77;;;11.95;;
24467;SDS011;12634;50.852;5.676;2023-04-30T06:11:48;14.70;;;11.50;;
24467;SDS011;12634;50.852;5.676;2023-04-30T06:14:16;16.13;;;12.57;;
24467;SDS011;12634;50.852;5.676;2023-04-30T06:16:44;15.40;;;12.18;;
24467;SDS011;12634;50.852;5.676;2023-04-30T06:19:12;15.85;;;11.70;;
24467;SDS011;12634;50.852;5.676;2023-04-30T06:21:40;13.77;;;10.55;;
24467;SDS011;12634;50.852;5.676;2023-04-30T06:24:08;16.52;;;10.98;;
24467;SDS011;12634;50.852;5.676;2023-04-30T06:26:35;14.52;;;10.43;;
24467;SDS011;12634;50.852;5.676;2023-04-30T06:29:02;16.35;;;10.82;;
24467;SDS011;12634;50.852;5.676;2023-04-30T06:31:30;12.93;;;10.40;;
24467;SDS011;12634;50.852;5.676;2023-04-30T06:33:57;14.70;;;10.68;;
24467;SDS011;12634;50.852;5.676;2023-04-30T06:36:26;13.45;;;10.05;;
24467;SDS011;12634;50.852;5.676;2023-04-30T06:38:53;12.50;;;10.32;;
24467;SDS011;12634;50.852;5.676;2023-04-30T06:41:20;13.40;;;10.85;;
24467;SDS011;12634;50.852;5.676;2023-04-30T06:43:47;12.18;;;9.68;;
24467;SDS011;12634;50.852;5.676;2023-04-30T06:46:14;15.43;;;10.48;;
24467;SDS011;12634;50.852;5.676;2023-04-30T06:48:41;13.27;;;10.07;;
24467;SDS011;12634;50.852;5.676;2023-04-30T06:51:08;12.70;;;9.82;;
24467;SDS011;12634;50.852;5.676;2023-04-30T06:53:37;13.35;;;9.85;;
24467;SDS011;12634;50.852;5.676;2023-04-30T06:56:04;13.15;;;9.35;;
24467;SDS011;12634;50.852;5.676;2023-04-30T06:58:32;13.57;;;10.23;;
24467;SDS011;12634;50.852;5.676;2023-04-30T07:00:59;13.57;;;10.02;;
24467;SDS011;12634;50.852;5.676;2023-04-30T07:03:26;13.30;;;10.50;;
24467;SDS011;12634;50.852;5.676;2023-04-30T07:05:53;13.77;;;10.52;;
24467;SDS011;12634;50.852;5.676;2023-04-30T07:08:21;12.55;;;10.05;;
24467;SDS011;12634;50.852;5.676;2023-04-30T07:10:50;15.07;;;10.82;;
24467;SDS011;12634;50.852;5.676;2023-04-30T07:13:17;16.00;;;10.55;;
24467;SDS011;12634;50.852;5.676;2023-04-30T07:15:44;17.52;;;11.18;;
24467;SDS011;12634;50.852;5.676;2023-04-30T07:18:11;15.13;;;11.15;;
24467;SDS011;12634;50.852;5.676;2023-04-30T07:20:38;15.55;;;9.63;;
24467;SDS011;12634;50.852;5.676;2023-04-30T07:23:05;14.38;;;11.10;;
24467;SDS011;12634;50.852;5.676;2023-04-30T07:25:33;14.52;;;11.57;;
24467;SDS011;12634;50.852;5.676;2023-04-30T07:28:02;17.90;;;11.70;;
24467;SDS011;12634;50.852;5.676;2023-04-30T07:30:29;15.85;;;11.95;;
24467;SDS011;12634;50.852;5.676;2023-04-30T07:32:56;15.00;;;12.13;;
24467;SDS011;12634;50.852;5.676;2023-04-30T07:35:23;14.90;;;12.07;;
24467;SDS011;12634;50.852;5.676;2023-04-30T07:37:50;13.77;;;11.43;;
24467;SDS011;12634;50.852;5.676;2023-04-30T07:40:17;13.90;;;11.65;;
24467;SDS011;12634;50.852;5.676;2023-04-30T07:42:44;16.50;;;11.82;;
24467;SDS011;12634;50.852;5.676;2023-04-30T07:45:13;13.82;;;11.93;;
24467;SDS011;12634;50.852;5.676;2023-04-30T07:47:40;16.55;;;11.95;;
24467;SDS011;12634;50.852;5.676;2023-04-30T07:50:07;15.82;;;12.70;;
24467;SDS011;12634;50.852;5.676;2023-04-30T07:52:36;15.35;;;13.32;;
24467;SDS011;12634;50.852;5.676;2023-04-30T07:55:03;13.73;;;11.57;;
24467;SDS011;12634;50.852;5.676;2023-04-30T07:57:31;13.50;;;11.80;;
24467;SDS011;12634;50.852;5.676;2023-04-30T07:59:58;12.02;;;10.82;;
24467;SDS011;12634;50.852;5.676;2023-04-30T08:02:26;16.30;;;11.20;;
24467;SDS011;12634;50.852;5.676;2023-04-30T08:04:53;13.25;;;10.75;;
24467;SDS011;12634;50.852;5.676;2023-04-30T08:07:21;12.82;;;11.43;;
24467;SDS011;12634;50.852;5.676;2023-04-30T08:09:49;15.77;;;11.30;;
24467;SDS011;12634;50.852;5.676;2023-04-30T08:12:16;14.35;;;11.38;;
24467;SDS011;12634;50.852;5.676;2023-04-30T08:14:44;16.02;;;12.45;;
24467;SDS011;12634;50.852;5.676;2023-04-30T08:17:11;15.43;;;12.07;;
24467;SDS011;12634;50.852;5.676;2023-04-30T08:19:39;13.35;;;11.35;;
24467;SDS011;12634;50.852;5.676;2023-04-30T08:22:06;16.88;;;13.05;;
24467;SDS011;12634;50.852;5.676;2023-04-30T08:24:34;15.10;;;11.43;;
24467;SDS011;12634;50.852;5.676;2023-04-30T08:27:01;12.85;;;10.85;;
24467;SDS011;12634;50.852;5.676;2023-04-30T08:29:28;15.20;;;11.20;;
24467;SDS011;12634;50.852;5.676;2023-04-30T08:31:55;13.00;;;10.90;;
24467;SDS011;12634;50.852;5.676;2023-04-30T08:34:27;14.45;;;11.50;;
24467;SDS011;12634;50.852;5.676;2023-04-30T08:36:56;12.52;;;10.75;;
24467;SDS011;12634;50.852;5.676;2023-04-30T08:39:23;12.80;;;10.38;;
24467;SDS011;12634;50.852;5.676;2023-04-30T08:41:52;13.32;;;10.43;;
24467;SDS011;12634;50.852;5.676;2023-04-30T08:44:21;15.30;;;10.65;;
24467;SDS011;12634;50.852;5.676;2023-04-30T08:46:50;11.93;;;9.30;;
24467;SDS011;12634;50.852;5.676;2023-04-30T08:49:20;10.10;;;8.98;;
24467;SDS011;12634;50.852;5.676;2023-04-30T08:51:48;13.02;;;9.00;;
24467;SDS011;12634;50.852;5.676;2023-04-30T08:54:17;13.45;;;8.55;;
24467;SDS011;12634;50.852;5.676;2023-04-30T08:56:45;10.65;;;8.50;;
24467;SDS011;12634;50.852;5.676;2023-04-30T08:59:12;12.00;;;9.10;;
24467;SDS011;12634;50.852;5.676;2023-04-30T09:01:40;12.27;;;8.68;;
24467;SDS011;12634;50.852;5.676;2023-04-30T09:04:07;9.93;;;7.90;;
24467;SDS011;12634;50.852;5.676;2023-04-30T09:06:34;10.52;;;8.40;;
24467;SDS011;12634;50.852;5.676;2023-04-30T09:09:07;10.07;;;8.02;;
24467;SDS011;12634;50.852;5.676;2023-04-30T09:11:37;10.68;;;7.57;;
24467;SDS011;12634;50.852;5.676;2023-04-30T09:14:04;12.60;;;7.75;;
24467;SDS011;12634;50.852;5.676;2023-04-30T09:16:43;9.15;;;7.35;;
24467;SDS011;12634;50.852;5.676;2023-04-30T09:19:21;9.73;;;7.32;;
24467;SDS011;12634;50.852;5.676;2023-04-30T09:21:49;8.15;;;6.50;;
24467;SDS011;12634;50.852;5.676;2023-04-30T09:24:16;13.10;;;6.78;;
24467;SDS011;12634;50.852;5.676;2023-04-30T09:26:45;8.48;;;6.60;;
24467;SDS011;12634;50.852;5.676;2023-04-30T09:29:13;10.98;;;7.40;;
24467;SDS011;12634;50.852;5.676;2023-04-30T09:31:41;9.10;;;7.45;;
24467;SDS011;12634;50.852;5.676;2023-04-30T09:34:10;9.88;;;7.13;;
24467;SDS011;12634;50.852;5.676;2023-04-30T09:36:37;11.32;;;6.20;;
24467;SDS011;12634;50.852;5.676;2023-04-30T09:39:17;7.32;;;5.47;;
24467;SDS011;12634;50.852;5.676;2023-04-30T09:41:46;8.07;;;6.20;;
24467;SDS011;12634;50.852;5.676;2023-04-30T09:44:28;7.97;;;6.68;;
24467;SDS011;12634;50.852;5.676;2023-04-30T09:46:55;8.68;;;6.15;;
24467;SDS011;12634;50.852;5.676;2023-04-30T09:49:23;9.18;;;5.88;;
24467;SDS011;12634;50.852;5.676;2023-04-30T09:51:54;8.23;;;5.30;;
24467;SDS011;12634;50.852;5.676;2023-04-30T09:54:22;6.88;;;4.97;;
24467;SDS011;12634;50.852;5.676;2023-04-30T09:56:54;8.90;;;6.13;;
24467;SDS011;12634;50.852;5.676;2023-04-30T09:59:24;7.07;;;5.40;;
24467;SDS011;12634;50.852;5.676;2023-04-30T10:01:56;8.18;;;5.78;;
24467;SDS011;12634;50.852;5.676;2023-04-30T10:04:25;7.75;;;5.97;;
24467;SDS011;12634;50.852;5.676;2023-04-30T10:06:56;9.07;;;5.50;;
24467;SDS011;12634;50.852;5.676;2023-04-30T10:09:24;7.72;;;6.05;;
24467;SDS011;12634;50.852;5.676;2023-04-30T10:11:56;10.40;;;5.47;;
24467;SDS011;12634;50.852;5.676;2023-04-30T10:14:24;8.05;;;6.00;;
24467;SDS011;12634;50.852;5.676;2023-04-30T10:16:58;7.95;;;5.97;;
24467;SDS011;12634;50.852;5.676;2023-04-30T10:19:29;7.35;;;4.88;;
24467;SDS011;12634;50.852;5.676;2023-04-30T10:21:59;4.72;;;3.33;;
24467;SDS011;12634;50.852;5.676;2023-04-30T10:24:27;6.43;;;4.32;;
24467;SDS011;12634;50.852;5.676;2023-04-30T10:26:56;5.13;;;3.92;;
24467;SDS011;12634;50.852;5.676;2023-04-30T10:29:24;7.88;;;3.63;;
24467;SDS011;12634;50.852;5.676;2023-04-30T10:31:51;6.63;;;3.05;;
24467;SDS011;12634;50.852;5.676;2023-04-30T10:34:21;3.83;;;2.67;;
24467;SDS011;12634;50.852;5.676;2023-04-30T10:36:58;6.45;;;3.38;;
24467;SDS011;12634;50.852;5.676;2023-04-30T10:39:31;4.53;;;2.60;;
24467;SDS011;12634;50.852;5.676;2023-04-30T10:42:02;4.97;;;1.92;;
24467;SDS011;12634;50.852;5.676;2023-04-30T10:44:31;3.17;;;2.10;;
24467;SDS011;12634;50.852;5.676;2023-04-30T10:46:59;3.95;;;1.75;;
24467;SDS011;12634;50.852;5.676;2023-04-30T10:49:27;5.15;;;2.25;;
24467;SDS011;12634;50.852;5.676;2023-04-30T10:51:56;4.43;;;2.10;;
24467;SDS011;12634;50.852;5.676;2023-04-30T10:54:26;5.70;;;3.10;;
24467;SDS011;12634;50.852;5.676;2023-04-30T10:57:08;3.33;;;2.17;;
24467;SDS011;12634;50.852;5.676;2023-04-30T10:59:42;4.65;;;2.63;;
24467;SDS011;12634;50.852;5.676;2023-04-30T11:02:11;4.00;;;2.30;;
24467;SDS011;12634;50.852;5.676;2023-04-30T11:07:34;7.22;;;2.25;;
24467;SDS011;12634;50.852;5.676;2023-04-30T11:10:01;3.72;;;1.88;;
24467;SDS011;12634;50.852;5.676;2023-04-30T11:12:30;4.50;;;2.35;;
24467;SDS011;12634;50.852;5.676;2023-04-30T11:14:59;4.68;;;2.03;;
24467;SDS011;12634;50.852;5.676;2023-04-30T11:17:27;2.92;;;1.90;;
24467;SDS011;12634;50.852;5.676;2023-04-30T11:19:57;4.43;;;2.28;;
24467;SDS011;12634;50.852;5.676;2023-04-30T11:22:26;3.53;;;2.08;;
24467;SDS011;12634;50.852;5.676;2023-04-30T11:25:02;3.80;;;1.60;;
24467;SDS011;12634;50.852;5.676;2023-04-30T11:27:32;2.95;;;1.65;;
24467;SDS011;12634;50.852;5.676;2023-04-30T11:30:00;2.40;;;1.60;;
24467;SDS011;12634;50.852;5.676;2023-04-30T11:32:33;3.83;;;1.65;;
24467;SDS011;12634;50.852;5.676;2023-04-30T11:35:01;2.10;;;1.50;;
24467;SDS011;12634;50.852;5.676;2023-04-30T11:37:30;4.10;;;1.80;;
24467;SDS011;12634;50.852;5.676;2023-04-30T11:42:30;2.95;;;1.88;;
24467;SDS011;12634;50.852;5.676;2023-04-30T11:45:03;2.25;;;1.50;;
24467;SDS011;12634;50.852;5.676;2023-04-30T11:47:39;3.60;;;1.63;;
24467;SDS011;12634;50.852;5.676;2023-04-30T11:50:07;4.60;;;2.17;;
24467;SDS011;12634;50.852;5.676;2023-04-30T11:52:36;3.47;;;2.15;;
24467;SDS011;12634;50.852;5.676;2023-04-30T11:55:07;4.90;;;3.10;;
24467;SDS011;12634;50.852;5.676;2023-04-30T11:57:41;4.32;;;2.92;;
24467;SDS011;12634;50.852;5.676;2023-04-30T12:00:10;4.78;;;2.70;;
24467;SDS011;12634;50.852;5.676;2023-04-30T12:02:38;4.68;;;2.92;;
24467;SDS011;12634;50.852;5.676;2023-04-30T12:05:11;5.60;;;3.05;;
24467;SDS011;12634;50.852;5.676;2023-04-30T12:10:10;4.40;;;3.20;;
24467;SDS011;12634;50.852;5.676;2023-04-30T12:12:37;4.20;;;2.83;;
24467;SDS011;12634;50.852;5.676;2023-04-30T12:15:13;4.45;;;3.00;;
24467;SDS011;12634;50.852;5.676;2023-04-30T12:17:41;4.07;;;2.83;;
24467;SDS011;12634;50.852;5.676;2023-04-30T12:20:10;4.60;;;3.00;;
24467;SDS011;12634;50.852;5.676;2023-04-30T12:22:38;5.40;;;2.33;;
24467;SDS011;12634;50.852;5.676;2023-04-30T12:25:07;3.05;;;1.92;;
24467;SDS011;12634;50.852;5.676;2023-04-30T12:27:38;4.63;;;2.30;;
24467;SDS011;12634;50.852;5.676;2023-04-30T12:30:06;2.63;;;1.75;;
24467;SDS011;12634;50.852;5.676;2023-04-30T12:32:39;4.03;;;2.40;;
24467;SDS011;12634;50.852;5.676;2023-04-30T12:35:08;6.38;;;2.13;;
24467;SDS011;12634;50.852;5.676;2023-04-30T12:37:40;4.60;;;2.72;;
24467;SDS011;12634;50.852;5.676;2023-04-30T12:40:09;4.53;;;2.35;;
24467;SDS011;12634;50.852;5.676;2023-04-30T12:42:37;5.85;;;2.20;;
24467;SDS011;12634;50.852;5.676;2023-04-30T12:45:05;3.70;;;2.70;;
24467;SDS011;12634;50.852;5.676;2023-04-30T12:47:36;3.88;;;2.47;;
24467;SDS011;12634;50.852;5.676;2023-04-30T12:50:07;5.20;;;2.93;;
24467;SDS011;12634;50.852;5.676;2023-04-30T12:52:37;4.40;;;2.65;;
24467;SDS011;12634;50.852;5.676;2023-04-30T12:55:14;3.55;;;2.20;;
24467;SDS011;12634;50.852;5.676;2023-04-30T13:00:44;3.35;;;2.47;;
24467;SDS011;12634;50.852;5.676;2023-04-30T13:03:13;4.90;;;3.00;;
24467;SDS011;12634;50.852;5.676;2023-04-30T13:05:44;5.10;;;2.45;;
24467;SDS011;12634;50.852;5.676;2023-04-30T13:08:13;4.43;;;2.70;;
24467;SDS011;12634;50.852;5.676;2023-04-30T13:10:41;4.20;;;3.13;;
24467;SDS011;12634;50.852;5.676;2023-04-30T13:13:08;4.43;;;2.40;;
24467;SDS011;12634;50.852;5.676;2023-04-30T13:15:35;8.30;;;2.80;;
24467;SDS011;12634;50.852;5.676;2023-04-30T13:18:03;4.05;;;2.53;;
24467;SDS011;12634;50.852;5.676;2023-04-30T13:20:34;4.05;;;2.25;;
24467;SDS011;12634;50.852;5.676;2023-04-30T13:23:01;3.58;;;2.28;;
24467;SDS011;12634;50.852;5.676;2023-04-30T13:25:29;3.75;;;2.40;;
24467;SDS011;12634;50.852;5.676;2023-04-30T13:27:58;4.70;;;2.30;;
24467;SDS011;12634;50.852;5.676;2023-04-30T13:30:25;3.33;;;2.30;;
24467;SDS011;12634;50.852;5.676;2023-04-30T13:32:52;5.25;;;2.20;;
24467;SDS011;12634;50.852;5.676;2023-04-30T13:35:20;3.22;;;1.90;;
24467;SDS011;12634;50.852;5.676;2023-04-30T13:37:48;3.30;;;2.10;;
24467;SDS011;12634;50.852;5.676;2023-04-30T13:40:16;4.68;;;2.95;;
24467;SDS011;12634;50.852;5.676;2023-04-30T13:42:45;3.97;;;2.20;;
24467;SDS011;12634;50.852;5.676;2023-04-30T13:45:13;2.92;;;1.90;;
24467;SDS011;12634;50.852;5.676;2023-04-30T13:47:40;3.65;;;2.00;;
24467;SDS011;12634;50.852;5.676;2023-04-30T13:50:07;5.72;;;2.17;;
24467;SDS011;12634;50.852;5.676;2023-04-30T13:52:35;4.20;;;2.10;;
24467;SDS011;12634;50.852;5.676;2023-04-30T13:55:04;4.88;;;2.15;;
24467;SDS011;12634;50.852;5.676;2023-04-30T13:57:33;4.47;;;2.00;;
24467;SDS011;12634;50.852;5.676;2023-04-30T14:00:00;3.97;;;2.13;;
24467;SDS011;12634;50.852;5.676;2023-04-30T14:02:29;4.20;;;2.20;;
24467;SDS011;12634;50.852;5.676;2023-04-30T14:04:56;4.93;;;2.65;;
24467;SDS011;12634;50.852;5.676;2023-04-30T14:07:23;4.43;;;2.63;;
24467;SDS011;12634;50.852;5.676;2023-04-30T14:09:51;3.70;;;2.20;;
24467;SDS011;12634;50.852;5.676;2023-04-30T14:12:20;3.78;;;2.08;;
24467;SDS011;12634;50.852;5.676;2023-04-30T14:14:48;3.10;;;1.90;;
24467;SDS011;12634;50.852;5.676;2023-04-30T14:17:15;3.63;;;2.15;;
24467;SDS011;12634;50.852;5.676;2023-04-30T14:19:42;5.40;;;2.00;;
24467;SDS011;12634;50.852;5.676;2023-04-30T14:22:10;2.53;;;2.05;;
24467;SDS011;12634;50.852;5.676;2023-04-30T14:24:37;2.50;;;1.90;;
24467;SDS011;12634;50.852;5.676;2023-04-30T14:27:04;3.65;;;2.38;;
24467;SDS011;12634;50.852;5.676;2023-04-30T14:29:33;3.00;;;2.30;;
24467;SDS011;12634;50.852;5.676;2023-04-30T14:32:00;3.35;;;2.20;;
24467;SDS011;12634;50.852;5.676;2023-04-30T14:34:28;5.00;;;2.20;;
24467;SDS011;12634;50.852;5.676;2023-04-30T14:36:55;4.30;;;1.88;;
24467;SDS011;12634;50.852;5.676;2023-04-30T14:39:25;3.53;;;1.95;;
24467;SDS011;12634;50.852;5.676;2023-04-30T14:41:53;2.25;;;1.80;;
24467;SDS011;12634;50.852;5.676;2023-04-30T14:44:20;5.25;;;2.45;;
24467;SDS011;12634;50.852;5.676;2023-04-30T14:46:51;3.78;;;2.13;;
24467;SDS011;12634;50.852;5.676;2023-04-30T14:49:18;3.83;;;2.58;;